sensor_id;sensor_type;location;lat;lon;timestamp;pressure;altitude;pressure_sealevel;temperature;humidity
21361;BME280;10839;43.206;23.550;2023-03-26T00:00:29;96664.19;;;12.37;100.00
21361;BME280;10839;43.206;23.550;2023-03-26T00:02:55;96663.97;;;12.63;99.79
21361;BME280;10839;43.206;23.550;2023-03-26T00:05:21;96657.28;;;12.72;98.34
21361;BME280;10839;43.206;23.550;2023-03-26T00:07:47;96659.06;;;12.54;88.59
21361;BME280;10839;43.206;23.550;2023-03-26T00:10:13;96651.09;;;12.65;83.92
21361;BME280;10839;43.206;23.550;2023-03-26T00:12:40;96668.28;;;12.96;81.68
21361;BME280;10839;43.206;23.550;2023-03-26T00:15:06;96660.00;;;12.91;82.42
21361;BME280;10839;43.206;23.550;2023-03-26T00:17:35;96652.84;;;12.53;82.94
21361;BME280;10839;43.206;23.550;2023-03-26T00:20:01;96654.63;;;12.91;81.64
21361;BME280;10839;43.206;23.550;2023-03-26T00:22:29;96654.06;;;13.07;80.52
21361;BME280;10839;43.206;23.550;2023-03-26T00:24:54;96650.56;;;13.00;80.40
21361;BME280;10839;43.206;23.550;2023-03-26T00:27:21;96645.56;;;12.78;83.48
21361;BME280;10839;43.206;23.550;2023-03-26T00:29:48;96624.50;;;13.12;79.73
21361;BME280;10839;43.206;23.550;2023-03-26T00:32:14;96631.28;;;13.21;80.53
21361;BME280;10839;43.206;23.550;2023-03-26T00:34:41;96618.91;;;12.88;79.05
21361;BME280;10839;43.206;23.550;2023-03-26T00:37:07;96611.91;;;13.06;77.94
21361;BME280;10839;43.206;23.550;2023-03-26T00:39:33;96607.41;;;13.18;76.67
21361;BME280;10839;43.206;23.550;2023-03-26T00:42:02;96608.91;;;13.32;74.92
21361;BME280;10839;43.206;23.550;2023-03-26T00:44:32;96621.38;;;13.33;75.05
21361;BME280;10839;43.206;23.550;2023-03-26T00:46:59;96626.63;;;13.46;74.38
21361;BME280;10839;43.206;23.550;2023-03-26T00:49:25;96626.03;;;13.44;71.78
21361;BME280;10839;43.206;23.550;2023-03-26T00:51:51;96635.63;;;13.58;70.96
21361;BME280;10839;43.206;23.550;2023-03-26T00:54:17;96634.44;;;13.54;72.34
21361;BME280;10839;43.206;23.550;2023-03-26T00:56:43;96632.78;;;13.53;74.58
21361;BME280;10839;43.206;23.550;2023-03-26T00:59:09;96638.91;;;13.78;75.48
21361;BME280;10839;43.206;23.550;2023-03-26T01:01:36;96631.44;;;13.62;77.46
21361;BME280;10839;43.206;23.550;2023-03-26T01:04:23;96642.41;;;13.49;79.53
21361;BME280;10839;43.206;23.550;2023-03-26T01:06:52;96640.00;;;13.41;80.63
21361;BME280;10839;43.206;23.550;2023-03-26T01:09:22;96651.25;;;13.56;79.78
21361;BME280;10839;43.206;23.550;2023-03-26T01:11:49;96648.84;;;13.66;79.10
21361;BME280;10839;43.206;23.550;2023-03-26T01:14:24;96652.75;;;13.52;79.94
21361;BME280;10839;43.206;23.550;2023-03-26T01:16:53;96641.81;;;13.29;82.42
21361;BME280;10839;43.206;23.550;2023-03-26T01:22:16;96647.19;;;13.29;81.20
21361;BME280;10839;43.206;23.550;2023-03-26T01:24:42;96649.91;;;13.29;81.20
21361;BME280;10839;43.206;23.550;2023-03-26T01:41:05;96665.81;;;13.37;84.74
21361;BME280;10839;43.206;23.550;2023-03-26T01:46:22;96672.22;;;13.60;81.29
21361;BME280;10839;43.206;23.550;2023-03-26T01:48:48;96666.84;;;13.18;81.66
21361;BME280;10839;43.206;23.550;2023-03-26T01:51:28;96670.97;;;12.96;85.28
21361;BME280;10839;43.206;23.550;2023-03-26T01:53:56;96669.81;;;13.10;84.58
21361;BME280;10839;43.206;23.550;2023-03-26T01:56:34;96676.13;;;13.04;84.10
21361;BME280;10839;43.206;23.550;2023-03-26T01:59:10;96674.81;;;12.81;86.76
21361;BME280;10839;43.206;23.550;2023-03-26T02:02:00;96677.31;;;13.08;86.26
21361;BME280;10839;43.206;23.550;2023-03-26T02:04:45;96678.81;;;13.04;88.18
21361;BME280;10839;43.206;23.550;2023-03-26T02:07:30;96681.00;;;12.64;94.97
21361;BME280;10839;43.206;23.550;2023-03-26T02:10:07;96674.94;;;12.68;98.16
21361;BME280;10839;43.206;23.550;2023-03-26T02:12:39;96671.09;;;12.82;96.04
21361;BME280;10839;43.206;23.550;2023-03-26T02:15:06;96673.66;;;12.46;99.19
21361;BME280;10839;43.206;23.550;2023-03-26T02:17:32;96687.78;;;12.42;100.00
21361;BME280;10839;43.206;23.550;2023-03-26T02:19:58;96687.25;;;12.58;100.00
21361;BME280;10839;43.206;23.550;2023-03-26T02:22:29;96681.75;;;12.71;100.00
21361;BME280;10839;43.206;23.550;2023-03-26T02:24:57;96679.41;;;12.25;100.00
21361;BME280;10839;43.206;23.550;2023-03-26T02:27:24;96675.69;;;12.20;100.00
21361;BME280;10839;43.206;23.550;2023-03-26T02:29:50;96679.91;;;12.40;99.13
21361;BME280;10839;43.206;23.550;2023-03-26T02:32:20;96673.66;;;12.46;92.71
21361;BME280;10839;43.206;23.550;2023-03-26T02:34:46;96695.03;;;12.10;89.91
21361;BME280;10839;43.206;23.550;2023-03-26T02:37:12;96675.91;;;12.18;89.67
21361;BME280;10839;43.206;23.550;2023-03-26T02:39:40;96694.09;;;12.29;86.25
21361;BME280;10839;43.206;23.550;2023-03-26T02:42:15;96688.09;;;12.27;82.12
21361;BME280;10839;43.206;23.550;2023-03-26T02:44:47;96705.09;;;11.90;84.50
21361;BME280;10839;43.206;23.550;2023-03-26T02:47:19;96704.94;;;12.16;80.51
21361;BME280;10839;43.206;23.550;2023-03-26T02:49:51;96698.50;;;12.24;81.12
21361;BME280;10839;43.206;23.550;2023-03-26T02:52:46;96705.88;;;11.97;79.47
21361;BME280;10839;43.206;23.550;2023-03-26T02:55:14;96722.47;;;12.01;79.90
21361;BME280;10839;43.206;23.550;2023-03-26T02:57:42;96713.66;;;12.18;78.60
21361;BME280;10839;43.206;23.550;2023-03-26T03:00:17;96723.75;;;12.29;76.75
21361;BME280;10839;43.206;23.550;2023-03-26T03:02:47;96730.22;;;11.84;77.63
21361;BME280;10839;43.206;23.550;2023-03-26T03:05:32;96730.28;;;12.15;76.52
21361;BME280;10839;43.206;23.550;2023-03-26T03:08:12;96723.97;;;12.28;73.82
21361;BME280;10839;43.206;23.550;2023-03-26T03:11:05;96717.84;;;12.08;72.45
21361;BME280;10839;43.206;23.550;2023-03-26T03:13:43;96740.63;;;12.18;70.34
21361;BME280;10839;43.206;23.550;2023-03-26T03:16:10;96736.84;;;12.32;70.91
21361;BME280;10839;43.206;23.550;2023-03-26T03:18:36;96742.63;;;12.29;69.99
21361;BME280;10839;43.206;23.550;2023-03-26T03:21:04;96735.75;;;12.02;70.21
21361;BME280;10839;43.206;23.550;2023-03-26T03:23:31;96738.97;;;12.24;68.73
21361;BME280;10839;43.206;23.550;2023-03-26T03:26:12;96732.69;;;12.30;70.04
21361;BME280;10839;43.206;23.550;2023-03-26T03:28:40;96739.72;;;12.37;70.07
21361;BME280;10839;43.206;23.550;2023-03-26T03:31:06;96732.47;;;11.87;73.12
21361;BME280;10839;43.206;23.550;2023-03-26T03:33:35;96721.97;;;12.17;70.65
21361;BME280;10839;43.206;23.550;2023-03-26T03:36:01;96726.06;;;12.32;69.81
21361;BME280;10839;43.206;23.550;2023-03-26T03:38:40;96734.81;;;12.21;70.09
21361;BME280;10839;43.206;23.550;2023-03-26T03:41:07;96723.97;;;11.90;72.67
21361;BME280;10839;43.206;23.550;2023-03-26T03:43:37;96723.84;;;12.16;68.66
21361;BME280;10839;43.206;23.550;2023-03-26T03:46:17;96734.81;;;12.21;69.71
21361;BME280;10839;43.206;23.550;2023-03-26T03:48:45;96730.97;;;12.04;69.17
21361;BME280;10839;43.206;23.550;2023-03-26T03:51:31;96741.19;;;11.89;70.25
21361;BME280;10839;43.206;23.550;2023-03-26T03:54:00;96721.56;;;12.13;69.90
21361;BME280;10839;43.206;23.550;2023-03-26T03:56:52;96742.06;;;12.27;68.99
21361;BME280;10839;43.206;23.550;2023-03-26T03:59:32;96737.38;;;12.03;71.25
21361;BME280;10839;43.206;23.550;2023-03-26T04:02:02;96732.72;;;11.79;72.63
21361;BME280;10839;43.206;23.550;2023-03-26T04:04:37;96745.28;;;11.98;70.79
21361;BME280;10839;43.206;23.550;2023-03-26T04:07:08;96746.06;;;12.12;70.38
21361;BME280;10839;43.206;23.550;2023-03-26T04:09:50;96743.72;;;11.71;73.09
21361;BME280;10839;43.206;23.550;2023-03-26T04:12:18;96736.25;;;11.73;73.96
21361;BME280;10839;43.206;23.550;2023-03-26T04:14:57;96741.97;;;11.96;72.25
21361;BME280;10839;43.206;23.550;2023-03-26T04:17:23;96750.69;;;11.98;72.78
21361;BME280;10839;43.206;23.550;2023-03-26T04:19:53;96751.59;;;11.53;74.94
21361;BME280;10839;43.206;23.550;2023-03-26T04:22:21;96759.09;;;11.64;74.82
21361;BME280;10839;43.206;23.550;2023-03-26T04:24:54;96764.00;;;11.87;73.26
21361;BME280;10839;43.206;23.550;2023-03-26T04:27:24;96768.16;;;11.89;73.27
21361;BME280;10839;43.206;23.550;2023-03-26T04:29:55;96774.84;;;11.41;75.49
21361;BME280;10839;43.206;23.550;2023-03-26T04:32:24;96771.88;;;11.88;70.89
21361;BME280;10839;43.206;23.550;2023-03-26T04:34:56;96780.97;;;12.00;69.74
21361;BME280;10839;43.206;23.550;2023-03-26T04:37:34;96771.44;;;11.91;70.96
21361;BME280;10839;43.206;23.550;2023-03-26T04:40:13;96789.72;;;11.76;72.55
21361;BME280;10839;43.206;23.550;2023-03-26T04:42:57;96787.56;;;12.86;66.98
21361;BME280;10839;43.206;23.550;2023-03-26T04:45:59;96803.03;;;15.38;56.62
21361;BME280;10839;43.206;23.550;2023-03-26T04:48:30;96800.88;;;15.70;54.24
21361;BME280;10839;43.206;23.550;2023-03-26T04:50:56;96811.47;;;16.97;50.63
21361;BME280;10839;43.206;23.550;2023-03-26T04:53:23;96801.69;;;19.15;45.76
21361;BME280;10839;43.206;23.550;2023-03-26T04:56:46;96814.41;;;19.89;42.56
21361;BME280;10839;43.206;23.550;2023-03-26T04:59:41;96822.56;;;21.54;38.44
21361;BME280;10839;43.206;23.550;2023-03-26T05:02:12;96815.47;;;21.58;37.27
21361;BME280;10839;43.206;23.550;2023-03-26T05:04:52;96803.13;;;21.56;36.86
21361;BME280;10839;43.206;23.550;2023-03-26T05:07:20;96814.91;;;22.37;34.94
21361;BME280;10839;43.206;23.550;2023-03-26T05:09:53;96816.28;;;22.29;35.52
21361;BME280;10839;43.206;23.550;2023-03-26T05:12:30;96829.72;;;23.20;34.26
21361;BME280;10839;43.206;23.550;2023-03-26T05:15:02;96824.84;;;23.07;34.78
21361;BME280;10839;43.206;23.550;2023-03-26T05:17:46;96824.69;;;24.14;32.40
21361;BME280;10839;43.206;23.550;2023-03-26T05:20:26;96822.56;;;24.06;31.51
21361;BME280;10839;43.206;23.550;2023-03-26T05:22:55;96831.34;;;25.12;30.18
21361;BME280;10839;43.206;23.550;2023-03-26T05:25:28;96836.28;;;25.15;29.29
21361;BME280;10839;43.206;23.550;2023-03-26T05:27:55;96832.47;;;25.91;29.12
21361;BME280;10839;43.206;23.550;2023-03-26T05:30:24;96829.38;;;24.94;29.43
21361;BME280;10839;43.206;23.550;2023-03-26T05:32:55;96844.19;;;25.83;27.24
21361;BME280;10839;43.206;23.550;2023-03-26T05:35:26;96831.13;;;26.07;26.86
21361;BME280;10839;43.206;23.550;2023-03-26T05:37:54;96838.97;;;26.32;27.12
21361;BME280;10839;43.206;23.550;2023-03-26T05:40:22;96828.75;;;26.92;26.30
21361;BME280;10839;43.206;23.550;2023-03-26T05:42:53;96839.00;;;26.45;26.61
21361;BME280;10839;43.206;23.550;2023-03-26T05:45:27;96832.44;;;26.28;26.78
21361;BME280;10839;43.206;23.550;2023-03-26T05:47:55;96833.03;;;27.88;25.03
21361;BME280;10839;43.206;23.550;2023-03-26T05:50:23;96839.66;;;27.78;25.57
21361;BME280;10839;43.206;23.550;2023-03-26T05:52:52;96847.94;;;28.14;25.37
21361;BME280;10839;43.206;23.550;2023-03-26T05:55:36;96847.03;;;28.27;25.40
21361;BME280;10839;43.206;23.550;2023-03-26T05:58:12;96848.66;;;29.50;24.05
21361;BME280;10839;43.206;23.550;2023-03-26T06:01:07;96857.28;;;30.31;23.77
21361;BME280;10839;43.206;23.550;2023-03-26T06:03:53;96847.75;;;28.85;24.29
21361;BME280;10839;43.206;23.550;2023-03-26T06:06:23;96843.13;;;28.72;24.68
21361;BME280;10839;43.206;23.550;2023-03-26T06:08:55;96845.66;;;29.21;24.31
21361;BME280;10839;43.206;23.550;2023-03-26T06:11:21;96844.41;;;29.44;23.92
21361;BME280;10839;43.206;23.550;2023-03-26T06:13:47;96849.41;;;30.16;22.93
21361;BME280;10839;43.206;23.550;2023-03-26T06:16:14;96849.41;;;29.25;25.00
21361;BME280;10839;43.206;23.550;2023-03-26T06:18:55;96847.94;;;30.01;23.35
21361;BME280;10839;43.206;23.550;2023-03-26T06:21:30;96850.75;;;28.97;24.16
21361;BME280;10839;43.206;23.550;2023-03-26T06:24:15;96842.13;;;28.68;24.89
21361;BME280;10839;43.206;23.550;2023-03-26T06:27:02;96853.47;;;29.19;24.09
21361;BME280;10839;43.206;23.550;2023-03-26T06:29:53;96851.13;;;30.71;22.56
21361;BME280;10839;43.206;23.550;2023-03-26T06:32:37;96855.78;;;30.42;22.56
21361;BME280;10839;43.206;23.550;2023-03-26T06:35:10;96852.00;;;32.05;20.42
21361;BME280;10839;43.206;23.550;2023-03-26T06:37:36;96844.59;;;32.63;19.94
21361;BME280;10839;43.206;23.550;2023-03-26T06:40:02;96836.03;;;30.18;22.20
21361;BME280;10839;43.206;23.550;2023-03-26T06:43:04;96842.31;;;31.24;20.47
21361;BME280;10839;43.206;23.550;2023-03-26T06:45:51;96837.72;;;30.90;21.37
21361;BME280;10839;43.206;23.550;2023-03-26T06:48:38;96843.66;;;31.56;20.16
21361;BME280;10839;43.206;23.550;2023-03-26T06:51:27;96847.41;;;31.22;19.93
21361;BME280;10839;43.206;23.550;2023-03-26T06:54:28;96844.69;;;31.43;19.73
21361;BME280;10839;43.206;23.550;2023-03-26T06:57:08;96844.69;;;31.43;19.97
21361;BME280;10839;43.206;23.550;2023-03-26T06:59:52;96838.13;;;30.21;20.14
21361;BME280;10839;43.206;23.550;2023-03-26T07:02:36;96840.63;;;31.02;20.17
21361;BME280;10839;43.206;23.550;2023-03-26T07:05:21;96836.03;;;30.18;21.09
21361;BME280;10839;43.206;23.550;2023-03-26T07:08:05;96847.47;;;30.08;20.64
21361;BME280;10839;43.206;23.550;2023-03-26T07:10:49;96841.19;;;30.62;20.80
21361;BME280;10839;43.206;23.550;2023-03-26T07:13:34;96838.44;;;29.85;21.18
21361;BME280;10839;43.206;23.550;2023-03-26T07:16:22;96824.50;;;30.79;20.70
21361;BME280;10839;43.206;23.550;2023-03-26T07:18:53;96829.72;;;30.89;20.57
21361;BME280;10839;43.206;23.550;2023-03-26T07:21:23;96836.28;;;31.22;20.18
21361;BME280;10839;43.206;23.550;2023-03-26T07:23:50;96838.81;;;29.27;21.51
21361;BME280;10839;43.206;23.550;2023-03-26T07:32:22;96842.88;;;29.94;21.83
21361;BME280;10839;43.206;23.550;2023-03-26T07:38:11;96838.22;;;28.69;22.69
21361;BME280;10839;43.206;23.550;2023-03-26T07:41:26;96837.97;;;29.66;21.94
21361;BME280;10839;43.206;23.550;2023-03-26T07:44:17;96830.47;;;29.19;22.49
21361;BME280;10839;43.206;23.550;2023-03-26T07:47:22;96827.66;;;28.49;22.78
21361;BME280;10839;43.206;23.550;2023-03-26T07:50:19;96840.28;;;29.89;21.48
21361;BME280;10839;43.206;23.550;2023-03-26T07:53:00;96831.72;;;29.60;21.91
21361;BME280;10839;43.206;23.550;2023-03-26T07:55:51;96838.63;;;29.88;21.87
21361;BME280;10839;43.206;23.550;2023-03-26T08:05:29;96838.81;;;29.27;22.64
21361;BME280;10839;43.206;23.550;2023-03-26T08:11:36;96837.81;;;28.31;23.11
21361;BME280;10839;43.206;23.550;2023-03-26T08:17:43;96833.47;;;29.00;22.63
21361;BME280;10839;43.206;23.550;2023-03-26T08:20:45;96830.56;;;29.05;22.36
21361;BME280;10839;43.206;23.550;2023-03-26T08:28:57;96835.44;;;28.69;22.50
21361;BME280;10839;43.206;23.550;2023-03-26T08:31:33;96841.78;;;28.61;22.69
21361;BME280;10839;43.206;23.550;2023-03-26T08:34:00;96834.22;;;28.53;22.59
21361;BME280;10839;43.206;23.550;2023-03-26T08:36:26;96840.50;;;28.67;22.53
21361;BME280;10839;43.206;23.550;2023-03-26T08:38:52;96833.06;;;28.32;22.14
21361;BME280;10839;43.206;23.550;2023-03-26T08:47:34;96833.34;;;28.00;23.42
21361;BME280;10839;43.206;23.550;2023-03-26T08:50:26;96837.03;;;27.59;23.47
21361;BME280;10839;43.206;23.550;2023-03-26T08:53:26;96832.44;;;27.14;23.98
21361;BME280;10839;43.206;23.550;2023-03-26T09:02:10;96825.56;;;27.25;24.35
21361;BME280;10839;43.206;23.550;2023-03-26T09:05:10;96817.44;;;26.93;25.19
21361;BME280;10839;43.206;23.550;2023-03-26T09:39:58;96794.28;;;25.98;23.33
21361;BME280;10839;43.206;23.550;2023-03-26T09:42:42;96789.91;;;26.88;23.52
21361;BME280;10839;43.206;23.550;2023-03-26T09:51:04;96780.94;;;25.36;24.58
21361;BME280;10839;43.206;23.550;2023-03-26T10:03:58;96749.47;;;26.38;23.21
21361;BME280;10839;43.206;23.550;2023-03-26T10:06:38;96766.44;;;26.45;22.55
21361;BME280;10839;43.206;23.550;2023-03-26T10:12:09;96749.66;;;25.96;23.46
21361;BME280;10839;43.206;23.550;2023-03-26T10:47:40;96702.44;;;25.52;23.78
21361;BME280;10839;43.206;23.550;2023-03-26T10:53:13;96701.94;;;25.82;23.68
21361;BME280;10839;43.206;23.550;2023-03-26T10:55:51;96704.06;;;25.53;23.65
21361;BME280;10839;43.206;23.550;2023-03-26T10:58:26;96700.28;;;25.81;23.27
21361;BME280;10839;43.206;23.550;2023-03-26T11:03:55;96695.22;;;25.18;24.18
21361;BME280;10839;43.206;23.550;2023-03-26T11:06:39;96695.28;;;25.51;24.01
21361;BME280;10839;43.206;23.550;2023-03-26T11:09:31;96705.34;;;25.23;24.17
21361;BME280;10839;43.206;23.550;2023-03-26T11:21:05;96682.47;;;24.85;24.69
21361;BME280;10839;43.206;23.550;2023-03-26T11:23:35;96683.38;;;24.57;24.98
21361;BME280;10839;43.206;23.550;2023-03-26T11:29:03;96679.69;;;23.96;25.29
21361;BME280;10839;43.206;23.550;2023-03-26T11:34:16;96661.69;;;24.32;24.12
21361;BME280;10839;43.206;23.550;2023-03-26T11:36:47;96670.81;;;24.28;24.82
21361;BME280;10839;43.206;23.550;2023-03-26T11:39:23;96657.72;;;24.20;24.62
21361;BME280;10839;43.206;23.550;2023-03-26T11:41:53;96653.84;;;23.97;24.72
21361;BME280;10839;43.206;23.550;2023-03-26T11:44:31;96652.44;;;23.71;25.60
21361;BME280;10839;43.206;23.550;2023-03-26T11:47:03;96647.59;;;23.63;25.40
21361;BME280;10839;43.206;23.550;2023-03-26T11:49:31;96642.38;;;23.33;26.03
21361;BME280;10839;43.206;23.550;2023-03-26T11:51:57;96625.78;;;22.75;26.38
21361;BME280;10839;43.206;23.550;2023-03-26T11:54:23;96638.81;;;22.94;26.25
21361;BME280;10839;43.206;23.550;2023-03-26T11:57:06;96634.94;;;23.00;26.15
21361;BME280;10839;43.206;23.550;2023-03-26T12:04:37;96608.88;;;22.58;27.60
21361;BME280;10839;43.206;23.550;2023-03-26T12:07:14;96595.31;;;22.28;27.62
21361;BME280;10839;43.206;23.550;2023-03-26T12:10:19;96604.78;;;22.02;27.68
21361;BME280;10839;43.206;23.550;2023-03-26T12:12:46;96605.44;;;22.28;28.29
21361;BME280;10839;43.206;23.550;2023-03-26T12:15:14;96605.47;;;22.23;27.67
21361;BME280;10839;43.206;23.550;2023-03-26T12:17:40;96604.31;;;22.39;28.17
21361;BME280;10839;43.206;23.550;2023-03-26T12:22:52;96601.56;;;21.70;28.83
21361;BME280;10839;43.206;23.550;2023-03-26T12:25:32;96598.06;;;21.34;28.88
21361;BME280;10839;43.206;23.550;2023-03-26T12:28:17;96590.84;;;21.84;28.98
21361;BME280;10839;43.206;23.550;2023-03-26T12:31:02;96592.06;;;22.21;28.36
21361;BME280;10839;43.206;23.550;2023-03-26T12:33:33;96582.47;;;20.85;28.68
21361;BME280;10839;43.206;23.550;2023-03-26T12:36:21;96577.00;;;20.95;29.32
21361;BME280;10839;43.206;23.550;2023-03-26T12:38:50;96579.72;;;21.40;29.54
21361;BME280;10839;43.206;23.550;2023-03-26T12:41:18;96574.47;;;21.64;29.08
21361;BME280;10839;43.206;23.550;2023-03-26T12:43:49;96573.66;;;21.53;29.26
21361;BME280;10839;43.206;23.550;2023-03-26T12:48:58;96558.94;;;21.34;29.17
21361;BME280;10839;43.206;23.550;2023-03-26T12:51:43;96550.75;;;21.29;28.81
21361;BME280;10839;43.206;23.550;2023-03-26T12:54:46;96553.50;;;21.14;29.52
21361;BME280;10839;43.206;23.550;2023-03-26T12:57:32;96549.59;;;21.45;29.05
21361;BME280;10839;43.206;23.550;2023-03-26T13:13:36;96556.22;;;21.14;29.05
21361;BME280;10839;43.206;23.550;2023-03-26T13:16:19;96555.13;;;20.95;29.58
21361;BME280;10839;43.206;23.550;2023-03-26T13:19:08;96540.66;;;21.09;29.78
21361;BME280;10839;43.206;23.550;2023-03-26T13:22:00;96540.94;;;20.83;30.66
21361;BME280;10839;43.206;23.550;2023-03-26T13:27:33;96543.91;;;20.91;30.41
21361;BME280;10839;43.206;23.550;2023-03-26T13:30:18;96527.75;;;21.15;30.34
21361;BME280;10839;43.206;23.550;2023-03-26T13:41:21;96527.78;;;21.00;29.14
21361;BME280;10839;43.206;23.550;2023-03-26T13:44:38;96518.78;;;20.64;29.52
21361;BME280;10839;43.206;23.550;2023-03-26T13:47:13;96518.22;;;20.42;29.95
21361;BME280;10839;43.206;23.550;2023-03-26T13:49:51;96517.09;;;20.48;29.55
21361;BME280;10839;43.206;23.550;2023-03-26T13:52:26;96509.72;;;20.79;29.46
21361;BME280;10839;43.206;23.550;2023-03-26T13:57:57;96513.56;;;20.73;30.10
21361;BME280;10839;43.206;23.550;2023-03-26T14:00:35;96515.75;;;20.86;29.67
21361;BME280;10839;43.206;23.550;2023-03-26T14:03:15;96522.31;;;20.55;30.50
21361;BME280;10839;43.206;23.550;2023-03-26T14:05:45;96512.44;;;20.23;30.68
21361;BME280;10839;43.206;23.550;2023-03-26T14:08:22;96510.84;;;20.43;30.33
21361;BME280;10839;43.206;23.550;2023-03-26T14:14:09;96503.69;;;20.31;30.80
21361;BME280;10839;43.206;23.550;2023-03-26T14:16:46;96511.38;;;20.55;30.37
21361;BME280;10839;43.206;23.550;2023-03-26T14:22:07;96506.44;;;20.52;30.13
21361;BME280;10839;43.206;23.550;2023-03-26T14:36:41;96506.34;;;20.01;29.79
21361;BME280;10839;43.206;23.550;2023-03-26T14:42:18;96496.41;;;19.60;30.36
21361;BME280;10839;43.206;23.550;2023-03-26T14:47:23;96493.81;;;20.10;30.63
21361;BME280;10839;43.206;23.550;2023-03-26T14:50:27;96490.22;;;19.90;30.75
21361;BME280;10839;43.206;23.550;2023-03-26T14:53:12;96491.06;;;19.95;29.93
21361;BME280;10839;43.206;23.550;2023-03-26T15:34:44;96503.81;;;19.13;31.31
21361;BME280;10839;43.206;23.550;2023-03-26T15:45:41;96496.44;;;18.72;32.63
21361;BME280;10839;43.206;23.550;2023-03-26T16:01:28;96505.88;;;18.28;34.22
21361;BME280;10839;43.206;23.550;2023-03-26T16:10:12;96502.53;;;18.21;34.35
21361;BME280;10839;43.206;23.550;2023-03-26T16:16:16;96511.94;;;17.55;36.58
21361;BME280;10839;43.206;23.550;2023-03-26T16:18:43;96517.66;;;17.58;36.50
21361;BME280;10839;43.206;23.550;2023-03-26T16:31:32;96511.47;;;17.41;36.52
21361;BME280;10839;43.206;23.550;2023-03-26T16:36:36;96513.09;;;17.42;36.21
21361;BME280;10839;43.206;23.550;2023-03-26T16:41:51;96510.22;;;17.11;37.58
21361;BME280;10839;43.206;23.550;2023-03-26T16:55:37;96513.03;;;15.83;40.82
21361;BME280;10839;43.206;23.550;2023-03-26T17:01:20;96512.94;;;15.38;43.04
21361;BME280;10839;43.206;23.550;2023-03-26T17:03:57;96523.09;;;15.43;42.64
21361;BME280;10839;43.206;23.550;2023-03-26T17:06:47;96522.50;;;15.29;43.57
21361;BME280;10839;43.206;23.550;2023-03-26T17:13:35;96517.41;;;14.93;44.67
21361;BME280;10839;43.206;23.550;2023-03-26T17:18:16;96516.31;;;14.94;43.59
21361;BME280;10839;43.206;23.550;2023-03-26T17:26:32;96524.72;;;14.81;43.48
21361;BME280;10839;43.206;23.550;2023-03-26T17:31:47;96528.00;;;14.83;43.26
21361;BME280;10839;43.206;23.550;2023-03-26T17:42:35;96508.94;;;14.55;43.74
21361;BME280;10839;43.206;23.550;2023-03-26T17:45:22;96513.63;;;14.25;44.60
21361;BME280;10839;43.206;23.550;2023-03-26T17:48:00;96504.81;;;14.30;44.28
21361;BME280;10839;43.206;23.550;2023-03-26T17:50:46;96504.09;;;14.34;44.50
21361;BME280;10839;43.206;23.550;2023-03-26T17:53:24;96486.56;;;14.25;44.75
21361;BME280;10839;43.206;23.550;2023-03-26T17:55:54;96492.34;;;14.40;44.64
21361;BME280;10839;43.206;23.550;2023-03-26T17:58:36;96487.84;;;14.46;44.57
21361;BME280;10839;43.206;23.550;2023-03-26T18:01:27;96490.00;;;14.44;44.46
21361;BME280;10839;43.206;23.550;2023-03-26T18:03:57;96495.59;;;14.31;44.65
21361;BME280;10839;43.206;23.550;2023-03-26T18:18:25;96494.50;;;13.97;44.33
21361;BME280;10839;43.206;23.550;2023-03-26T18:20:48;96484.19;;;14.17;43.50
21361;BME280;10839;43.206;23.550;2023-03-26T18:23:34;96475.03;;;14.41;42.72
21361;BME280;10839;43.206;23.550;2023-03-26T18:26:12;96474.44;;;14.51;41.59
21361;BME280;10839;43.206;23.550;2023-03-26T18:28:49;96478.22;;;14.61;41.10
21361;BME280;10839;43.206;23.550;2023-03-26T18:31:19;96472.69;;;14.56;40.55
21361;BME280;10839;43.206;23.550;2023-03-26T18:33:47;96474.44;;;14.62;39.91
21361;BME280;10839;43.206;23.550;2023-03-26T18:36:15;96466.88;;;14.76;39.14
21361;BME280;10839;43.206;23.550;2023-03-26T18:38:44;96458.75;;;14.87;38.95
21361;BME280;10839;43.206;23.550;2023-03-26T18:41:25;96459.22;;;14.84;39.14
21361;BME280;10839;43.206;23.550;2023-03-26T18:43:54;96459.69;;;14.81;39.28
21361;BME280;10839;43.206;23.550;2023-03-26T18:46:22;96459.97;;;14.68;41.03
21361;BME280;10839;43.206;23.550;2023-03-26T18:48:48;96453.13;;;14.54;41.46
21361;BME280;10839;43.206;23.550;2023-03-26T18:51:14;96439.69;;;14.13;43.10
21361;BME280;10839;43.206;23.550;2023-03-26T18:53:58;96446.19;;;14.12;42.81
21361;BME280;10839;43.206;23.550;2023-03-26T18:56:39;96431.69;;;14.18;42.40
21361;BME280;10839;43.206;23.550;2023-03-26T18:59:28;96443.13;;;14.08;42.41
21361;BME280;10839;43.206;23.550;2023-03-26T19:01:57;96430.25;;;14.04;41.65
21361;BME280;10839;43.206;23.550;2023-03-26T19:04:27;96425.44;;;13.94;42.11
21361;BME280;10839;43.206;23.550;2023-03-26T19:06:56;96415.47;;;13.95;42.14
21361;BME280;10839;43.206;23.550;2023-03-26T19:09:23;96426.28;;;13.95;41.79
21361;BME280;10839;43.206;23.550;2023-03-26T19:11:54;96418.16;;;14.18;40.49
21361;BME280;10839;43.206;23.550;2023-03-26T19:14:22;96420.19;;;14.34;40.10
21361;BME280;10839;43.206;23.550;2023-03-26T19:16:58;96408.66;;;14.50;39.63
21361;BME280;10839;43.206;23.550;2023-03-26T19:19:30;96398.31;;;14.47;40.31
21361;BME280;10839;43.206;23.550;2023-03-26T19:21:57;96404.31;;;14.38;40.55
21361;BME280;10839;43.206;23.550;2023-03-26T19:24:23;96396.41;;;14.13;42.00
21361;BME280;10839;43.206;23.550;2023-03-26T19:26:49;96392.28;;;13.87;43.25
21361;BME280;10839;43.206;23.550;2023-03-26T19:29:21;96393.53;;;13.62;44.39
21361;BME280;10839;43.206;23.550;2023-03-26T19:31:50;96397.34;;;13.31;45.66
21361;BME280;10839;43.206;23.550;2023-03-26T19:34:37;96389.31;;;13.25;46.53